sensor_id;sensor_type;location;lat;lon;timestamp;P1;durP1;ratioP1;P2;durP2;ratioP2
18879;SDS011;9572;52.378;13.404;2022-09-12T00:02:23;4.85;;;3.60;;
18879;SDS011;9572;52.378;13.404;2022-09-12T00:04:50;3.55;;;3.25;;
18879;SDS011;9572;52.378;13.404;2022-09-12T00:07:17;4.32;;;3.50;;
18879;SDS011;9572;52.378;13.404;2022-09-12T00:09:44;4.53;;;3.40;;
18879;SDS011;9572;52.378;13.404;2022-09-12T00:12:11;3.85;;;3.35;;
18879;SDS011;9572;52.378;13.404;2022-09-12T00:14:38;4.10;;;3.15;;
18879;SDS011;9572;52.378;13.404;2022-09-12T00:17:05;3.88;;;3.55;;
18879;SDS011;9572;52.378;13.404;2022-09-12T00:19:33;3.60;;;3.00;;
18879;SDS011;9572;52.378;13.404;2022-09-12T00:22:00;4.15;;;3.55;;
18879;SDS011;9572;52.378;13.404;2022-09-12T00:24:27;3.60;;;3.30;;
18879;SDS011;9572;52.378;13.404;2022-09-12T00:26:54;3.40;;;3.08;;
18879;SDS011;9572;52.378;13.404;2022-09-12T00:29:21;3.58;;;3.28;;
18879;SDS011;9572;52.378;13.404;2022-09-12T00:31:48;6.75;;;3.63;;
18879;SDS011;9572;52.378;13.404;2022-09-12T00:34:15;3.80;;;3.42;;
18879;SDS011;9572;52.378;13.404;2022-09-12T00:36:43;4.03;;;3.65;;
18879;SDS011;9572;52.378;13.404;2022-09-12T00:39:11;3.22;;;2.95;;
18879;SDS011;9572;52.378;13.404;2022-09-12T00:41:41;3.15;;;2.95;;
18879;SDS011;9572;52.378;13.404;2022-09-12T00:47:09;4.03;;;3.55;;
18879;SDS011;9572;52.378;13.404;2022-09-12T00:49:44;3.92;;;3.05;;
18879;SDS011;9572;52.378;13.404;2022-09-12T00:52:17;3.70;;;3.38;;
18879;SDS011;9572;52.378;13.404;2022-09-12T00:54:48;3.72;;;3.38;;
18879;SDS011;9572;52.378;13.404;2022-09-12T00:57:20;3.20;;;2.90;;
18879;SDS011;9572;52.378;13.404;2022-09-12T00:59:50;3.70;;;3.35;;
18879;SDS011;9572;52.378;13.404;2022-09-12T01:02:21;3.03;;;2.80;;
18879;SDS011;9572;52.378;13.404;2022-09-12T01:04:49;3.03;;;2.72;;
18879;SDS011;9572;52.378;13.404;2022-09-12T01:07:18;3.13;;;2.85;;
18879;SDS011;9572;52.378;13.404;2022-09-12T01:09:47;3.15;;;2.75;;
18879;SDS011;9572;52.378;13.404;2022-09-12T01:12:15;3.13;;;2.88;;
18879;SDS011;9572;52.378;13.404;2022-09-12T01:14:42;3.50;;;2.70;;
18879;SDS011;9572;52.378;13.404;2022-09-12T01:17:10;3.35;;;3.08;;
18879;SDS011;9572;52.378;13.404;2022-09-12T01:19:52;3.95;;;3.13;;
18879;SDS011;9572;52.378;13.404;2022-09-12T01:22:47;2.60;;;2.40;;
18879;SDS011;9572;52.378;13.404;2022-09-12T01:25:54;3.30;;;3.00;;
18879;SDS011;9572;52.378;13.404;2022-09-12T01:31:25;3.78;;;2.50;;
18879;SDS011;9572;52.378;13.404;2022-09-12T01:34:01;3.30;;;3.00;;
18879;SDS011;9572;52.378;13.404;2022-09-12T01:36:38;2.85;;;2.60;;
18879;SDS011;9572;52.378;13.404;2022-09-12T01:39:12;2.60;;;2.40;;
18879;SDS011;9572;52.378;13.404;2022-09-12T01:41:48;2.70;;;2.50;;
18879;SDS011;9572;52.378;13.404;2022-09-12T01:44:22;2.78;;;2.58;;
18879;SDS011;9572;52.378;13.404;2022-09-12T01:46:58;4.25;;;2.95;;
18879;SDS011;9572;52.378;13.404;2022-09-12T01:49:34;3.30;;;3.00;;
18879;SDS011;9572;52.378;13.404;2022-09-12T01:52:06;3.17;;;2.88;;
18879;SDS011;9572;52.378;13.404;2022-09-12T01:54:39;3.20;;;2.75;;
18879;SDS011;9572;52.378;13.404;2022-09-12T01:57:11;3.55;;;3.17;;
18879;SDS011;9572;52.378;13.404;2022-09-12T01:59:43;2.50;;;2.30;;
18879;SDS011;9572;52.378;13.404;2022-09-12T02:02:16;3.25;;;2.78;;
18879;SDS011;9572;52.378;13.404;2022-09-12T02:04:49;3.00;;;2.50;;
18879;SDS011;9572;52.378;13.404;2022-09-12T02:07:21;3.80;;;3.30;;
18879;SDS011;9572;52.378;13.404;2022-09-12T02:09:56;4.30;;;3.10;;
18879;SDS011;9572;52.378;13.404;2022-09-12T02:12:30;3.08;;;2.80;;
18879;SDS011;9572;52.378;13.404;2022-09-12T02:15:06;3.83;;;2.92;;
18879;SDS011;9572;52.378;13.404;2022-09-12T02:17:36;3.33;;;2.85;;
18879;SDS011;9572;52.378;13.404;2022-09-12T02:20:07;2.85;;;2.65;;
18879;SDS011;9572;52.378;13.404;2022-09-12T02:22:40;2.50;;;2.30;;
18879;SDS011;9572;52.378;13.404;2022-09-12T02:25:08;3.40;;;3.10;;
18879;SDS011;9572;52.378;13.404;2022-09-12T02:27:39;3.53;;;2.70;;
18879;SDS011;9572;52.378;13.404;2022-09-12T02:30:09;3.10;;;2.80;;
18879;SDS011;9572;52.378;13.404;2022-09-12T02:32:42;3.88;;;2.33;;
18879;SDS011;9572;52.378;13.404;2022-09-12T02:35:20;2.65;;;2.45;;
18879;SDS011;9572;52.378;13.404;2022-09-12T02:37:53;2.45;;;2.25;;
18879;SDS011;9572;52.378;13.404;2022-09-12T02:40:25;3.10;;;2.80;;
18879;SDS011;9572;52.378;13.404;2022-09-12T02:42:52;5.20;;;2.60;;
18879;SDS011;9572;52.378;13.404;2022-09-12T02:45:19;4.32;;;2.63;;
18879;SDS011;9572;52.378;13.404;2022-09-12T02:47:49;4.15;;;3.10;;
18879;SDS011;9572;52.378;13.404;2022-09-12T02:50:18;2.65;;;2.45;;
18879;SDS011;9572;52.378;13.404;2022-09-12T02:52:45;3.15;;;2.58;;
18879;SDS011;9572;52.378;13.404;2022-09-12T02:55:12;4.90;;;2.47;;
18879;SDS011;9572;52.378;13.404;2022-09-12T02:57:40;2.45;;;2.25;;
18879;SDS011;9572;52.378;13.404;2022-09-12T03:00:08;3.75;;;2.83;;
18879;SDS011;9572;52.378;13.404;2022-09-12T03:02:40;2.65;;;2.45;;
18879;SDS011;9572;52.378;13.404;2022-09-12T03:05:23;2.67;;;2.47;;
18879;SDS011;9572;52.378;13.404;2022-09-12T03:13:52;3.60;;;2.92;;
18879;SDS011;9572;52.378;13.404;2022-09-12T03:16:32;2.92;;;2.67;;
18879;SDS011;9572;52.378;13.404;2022-09-12T03:19:12;3.20;;;2.83;;
18879;SDS011;9572;52.378;13.404;2022-09-12T03:21:46;2.78;;;2.58;;
18879;SDS011;9572;52.378;13.404;2022-09-12T03:24:20;3.13;;;2.83;;
18879;SDS011;9572;52.378;13.404;2022-09-12T03:26:57;3.00;;;2.70;;
18879;SDS011;9572;52.378;13.404;2022-09-12T03:29:30;5.15;;;2.78;;
18879;SDS011;9572;52.378;13.404;2022-09-12T03:31:58;2.88;;;2.60;;
18879;SDS011;9572;52.378;13.404;2022-09-12T03:34:26;3.25;;;2.75;;
18879;SDS011;9572;52.378;13.404;2022-09-12T03:36:53;2.78;;;2.58;;
18879;SDS011;9572;52.378;13.404;2022-09-12T03:39:21;3.55;;;2.85;;
18879;SDS011;9572;52.378;13.404;2022-09-12T03:41:50;3.10;;;2.30;;
18879;SDS011;9572;52.378;13.404;2022-09-12T03:44:17;3.88;;;3.05;;
18879;SDS011;9572;52.378;13.404;2022-09-12T03:46:44;3.60;;;3.30;;
18879;SDS011;9572;52.378;13.404;2022-09-12T03:49:11;3.03;;;2.72;;
18879;SDS011;9572;52.378;13.404;2022-09-12T03:51:40;3.50;;;3.00;;
18879;SDS011;9572;52.378;13.404;2022-09-12T03:54:08;4.00;;;2.95;;
18879;SDS011;9572;52.378;13.404;2022-09-12T03:56:35;3.72;;;3.05;;
18879;SDS011;9572;52.378;13.404;2022-09-12T03:59:04;3.63;;;2.92;;
18879;SDS011;9572;52.378;13.404;2022-09-12T04:01:32;3.30;;;2.75;;
18879;SDS011;9572;52.378;13.404;2022-09-12T04:03:59;3.75;;;2.53;;
18879;SDS011;9572;52.378;13.404;2022-09-12T04:06:26;2.85;;;2.65;;
18879;SDS011;9572;52.378;13.404;2022-09-12T04:08:55;2.28;;;2.10;;
18879;SDS011;9572;52.378;13.404;2022-09-12T04:11:22;2.63;;;2.42;;
18879;SDS011;9572;52.378;13.404;2022-09-12T04:13:49;2.70;;;2.50;;
18879;SDS011;9572;52.378;13.404;2022-09-12T04:16:16;3.20;;;2.90;;
18879;SDS011;9572;52.378;13.404;2022-09-12T04:18:43;2.97;;;2.65;;
18879;SDS011;9572;52.378;13.404;2022-09-12T04:21:11;3.75;;;3.20;;
18879;SDS011;9572;52.378;13.404;2022-09-12T04:23:39;3.50;;;3.20;;
18879;SDS011;9572;52.378;13.404;2022-09-12T04:26:08;3.00;;;2.78;;
18879;SDS011;9572;52.378;13.404;2022-09-12T04:28:36;2.92;;;2.72;;
18879;SDS011;9572;52.378;13.404;2022-09-12T04:31:04;3.30;;;3.00;;
18879;SDS011;9572;52.378;13.404;2022-09-12T04:33:33;4.30;;;3.15;;
18879;SDS011;9572;52.378;13.404;2022-09-12T04:36:03;3.58;;;3.28;;
18879;SDS011;9572;52.378;13.404;2022-09-12T04:38:31;3.28;;;2.80;;
18879;SDS011;9572;52.378;13.404;2022-09-12T04:40:59;4.82;;;2.83;;
18879;SDS011;9572;52.378;13.404;2022-09-12T04:43:28;3.72;;;2.78;;
18879;SDS011;9572;52.378;13.404;2022-09-12T04:45:55;2.70;;;2.50;;
18879;SDS011;9572;52.378;13.404;2022-09-12T04:48:22;3.92;;;3.03;;
18879;SDS011;9572;52.378;13.404;2022-09-12T04:50:49;2.90;;;2.70;;
18879;SDS011;9572;52.378;13.404;2022-09-12T04:53:16;4.22;;;3.55;;
18879;SDS011;9572;52.378;13.404;2022-09-12T04:55:42;3.92;;;3.05;;
18879;SDS011;9572;52.378;13.404;2022-09-12T04:58:10;3.50;;;3.15;;
18879;SDS011;9572;52.378;13.404;2022-09-12T05:00:38;3.00;;;2.80;;
18879;SDS011;9572;52.378;13.404;2022-09-12T05:03:05;3.80;;;3.33;;
18879;SDS011;9572;52.378;13.404;2022-09-12T05:05:32;3.50;;;3.20;;
18879;SDS011;9572;52.378;13.404;2022-09-12T05:07:59;3.05;;;2.60;;
18879;SDS011;9572;52.378;13.404;2022-09-12T05:10:26;5.00;;;2.90;;
18879;SDS011;9572;52.378;13.404;2022-09-12T05:12:53;6.43;;;3.03;;
18879;SDS011;9572;52.378;13.404;2022-09-12T05:15:20;2.70;;;2.50;;
18879;SDS011;9572;52.378;13.404;2022-09-12T05:17:50;3.78;;;3.47;;
18879;SDS011;9572;52.378;13.404;2022-09-12T05:20:17;3.88;;;3.40;;
18879;SDS011;9572;52.378;13.404;2022-09-12T05:22:44;3.65;;;3.03;;
18879;SDS011;9572;52.378;13.404;2022-09-12T05:25:11;4.22;;;2.85;;
18879;SDS011;9572;52.378;13.404;2022-09-12T05:27:37;3.15;;;2.83;;
18879;SDS011;9572;52.378;13.404;2022-09-12T05:30:05;2.78;;;2.50;;
18879;SDS011;9572;52.378;13.404;2022-09-12T05:32:32;2.97;;;2.78;;
18879;SDS011;9572;52.378;13.404;2022-09-12T05:35:01;3.13;;;2.80;;
18879;SDS011;9572;52.378;13.404;2022-09-12T05:37:28;2.92;;;2.72;;
18879;SDS011;9572;52.378;13.404;2022-09-12T05:39:54;5.22;;;3.20;;
18879;SDS011;9572;52.378;13.404;2022-09-12T05:42:24;3.55;;;3.17;;
18879;SDS011;9572;52.378;13.404;2022-09-12T05:44:50;4.25;;;3.85;;
18879;SDS011;9572;52.378;13.404;2022-09-12T05:47:18;3.78;;;3.38;;
18879;SDS011;9572;52.378;13.404;2022-09-12T05:49:44;4.28;;;3.67;;
18879;SDS011;9572;52.378;13.404;2022-09-12T05:52:13;6.15;;;4.50;;
18879;SDS011;9572;52.378;13.404;2022-09-12T05:54:41;5.72;;;4.88;;
18879;SDS011;9572;52.378;13.404;2022-09-12T05:57:08;4.68;;;4.28;;
18879;SDS011;9572;52.378;13.404;2022-09-12T05:59:34;7.13;;;5.55;;
18879;SDS011;9572;52.378;13.404;2022-09-12T06:02:02;6.20;;;5.07;;
18879;SDS011;9572;52.378;13.404;2022-09-12T06:04:28;8.43;;;5.60;;
18879;SDS011;9572;52.378;13.404;2022-09-12T06:06:55;6.28;;;4.95;;
18879;SDS011;9572;52.378;13.404;2022-09-12T06:09:23;4.97;;;4.47;;
18879;SDS011;9572;52.378;13.404;2022-09-12T06:11:52;5.30;;;4.68;;
18879;SDS011;9572;52.378;13.404;2022-09-12T06:14:20;5.05;;;4.55;;
18879;SDS011;9572;52.378;13.404;2022-09-12T06:16:47;6.18;;;4.63;;
18879;SDS011;9572;52.378;13.404;2022-09-12T06:19:15;4.57;;;4.18;;
18879;SDS011;9572;52.378;13.404;2022-09-12T06:21:43;4.20;;;3.80;;
18879;SDS011;9572;52.378;13.404;2022-09-12T06:24:11;4.65;;;4.13;;
18879;SDS011;9572;52.378;13.404;2022-09-12T06:26:39;6.13;;;4.03;;
18879;SDS011;9572;52.378;13.404;2022-09-12T06:29:08;3.70;;;3.40;;
18879;SDS011;9572;52.378;13.404;2022-09-12T06:31:37;5.32;;;4.32;;
18879;SDS011;9572;52.378;13.404;2022-09-12T06:34:06;4.20;;;3.88;;
18879;SDS011;9572;52.378;13.404;2022-09-12T06:36:36;4.40;;;3.92;;
18879;SDS011;9572;52.378;13.404;2022-09-12T06:39:05;4.78;;;4.38;;
18879;SDS011;9572;52.378;13.404;2022-09-12T06:41:32;5.22;;;3.92;;
18879;SDS011;9572;52.378;13.404;2022-09-12T06:44:01;4.57;;;4.18;;
18879;SDS011;9572;52.378;13.404;2022-09-12T06:46:29;5.53;;;3.95;;
18879;SDS011;9572;52.378;13.404;2022-09-12T06:48:56;5.45;;;4.68;;
18879;SDS011;9572;52.378;13.404;2022-09-12T06:51:24;5.00;;;4.50;;
18879;SDS011;9572;52.378;13.404;2022-09-12T06:53:53;4.47;;;4.07;;
18879;SDS011;9572;52.378;13.404;2022-09-12T06:56:21;6.72;;;5.07;;
18879;SDS011;9572;52.378;13.404;2022-09-12T06:58:50;4.97;;;4.53;;
18879;SDS011;9572;52.378;13.404;2022-09-12T07:01:19;5.10;;;4.22;;
18879;SDS011;9572;52.378;13.404;2022-09-12T07:03:48;6.95;;;4.72;;
18879;SDS011;9572;52.378;13.404;2022-09-12T07:06:17;5.88;;;3.95;;
18879;SDS011;9572;52.378;13.404;2022-09-12T07:08:45;5.05;;;4.55;;
18879;SDS011;9572;52.378;13.404;2022-09-12T07:11:14;8.27;;;5.43;;
18879;SDS011;9572;52.378;13.404;2022-09-12T07:13:42;6.60;;;5.43;;
18879;SDS011;9572;52.378;13.404;2022-09-12T07:16:10;4.82;;;4.35;;
18879;SDS011;9572;52.378;13.404;2022-09-12T07:18:39;4.35;;;3.90;;
18879;SDS011;9572;52.378;13.404;2022-09-12T07:21:09;5.60;;;4.40;;
18879;SDS011;9572;52.378;13.404;2022-09-12T07:23:38;9.00;;;5.32;;
18879;SDS011;9572;52.378;13.404;2022-09-12T07:26:06;7.30;;;4.70;;
18879;SDS011;9572;52.378;13.404;2022-09-12T07:28:33;6.20;;;5.03;;
18879;SDS011;9572;52.378;13.404;2022-09-12T07:31:03;7.53;;;4.28;;
18879;SDS011;9572;52.378;13.404;2022-09-12T07:33:32;4.80;;;3.95;;
18879;SDS011;9572;52.378;13.404;2022-09-12T07:36:01;5.10;;;3.95;;
18879;SDS011;9572;52.378;13.404;2022-09-12T07:38:28;6.93;;;4.72;;
18879;SDS011;9572;52.378;13.404;2022-09-12T07:40:55;7.30;;;4.75;;
18879;SDS011;9572;52.378;13.404;2022-09-12T07:43:22;5.07;;;4.05;;
18879;SDS011;9572;52.378;13.404;2022-09-12T07:45:53;3.78;;;3.38;;
18879;SDS011;9572;52.378;13.404;2022-09-12T07:48:20;4.10;;;3.60;;
18879;SDS011;9572;52.378;13.404;2022-09-12T07:50:47;6.53;;;4.30;;
18879;SDS011;9572;52.378;13.404;2022-09-12T07:53:24;5.15;;;3.70;;
18879;SDS011;9572;52.378;13.404;2022-09-12T07:55:54;4.10;;;3.70;;
18879;SDS011;9572;52.378;13.404;2022-09-12T07:58:21;3.22;;;2.92;;
18879;SDS011;9572;52.378;13.404;2022-09-12T08:00:48;4.07;;;3.40;;
18879;SDS011;9572;52.378;13.404;2022-09-12T08:03:15;4.55;;;3.20;;
18879;SDS011;9572;52.378;13.404;2022-09-12T08:08:19;4.25;;;2.15;;
18879;SDS011;9572;52.378;13.404;2022-09-12T08:10:47;3.15;;;1.85;;
18879;SDS011;9572;52.378;13.404;2022-09-12T08:13:14;6.40;;;2.50;;
18879;SDS011;9572;52.378;13.404;2022-09-12T08:15:41;4.22;;;1.80;;
18879;SDS011;9572;52.378;13.404;2022-09-12T08:18:08;3.25;;;1.70;;
18879;SDS011;9572;52.378;13.404;2022-09-12T08:20:35;2.60;;;1.92;;
18879;SDS011;9572;52.378;13.404;2022-09-12T08:23:02;4.72;;;2.55;;
18879;SDS011;9572;52.378;13.404;2022-09-12T08:29:02;2.08;;;1.80;;
18879;SDS011;9572;52.378;13.404;2022-09-12T08:31:29;2.40;;;1.30;;
18879;SDS011;9572;52.378;13.404;2022-09-12T08:34:19;2.00;;;1.75;;
18879;SDS011;9572;52.378;13.404;2022-09-12T08:46:54;1.50;;;1.40;;
18879;SDS011;9572;52.378;13.404;2022-09-12T08:52:37;1.60;;;1.25;;
18879;SDS011;9572;52.378;13.404;2022-09-12T09:01:17;2.28;;;1.20;;
18879;SDS011;9572;52.378;13.404;2022-09-12T09:07:15;1.13;;;1.02;;
18879;SDS011;9572;52.378;13.404;2022-09-12T09:23:33;2.05;;;0.80;;
18879;SDS011;9572;52.378;13.404;2022-09-12T09:26:05;1.13;;;0.90;;
18879;SDS011;9572;52.378;13.404;2022-09-12T09:28:35;1.75;;;1.20;;
18879;SDS011;9572;52.378;13.404;2022-09-12T09:31:09;2.28;;;0.90;;
18879;SDS011;9572;52.378;13.404;2022-09-12T09:33:39;3.88;;;1.20;;
18879;SDS011;9572;52.378;13.404;2022-09-12T09:36:09;2.60;;;1.20;;
18879;SDS011;9572;52.378;13.404;2022-09-12T09:38:47;2.03;;;1.15;;
18879;SDS011;9572;52.378;13.404;2022-09-12T09:41:19;1.83;;;1.30;;
18879;SDS011;9572;52.378;13.404;2022-09-12T09:43:56;1.25;;;1.10;;
18879;SDS011;9572;52.378;13.404;2022-09-12T09:46:33;1.20;;;1.00;;
18879;SDS011;9572;52.378;13.404;2022-09-12T09:49:00;1.20;;;0.80;;
18879;SDS011;9572;52.378;13.404;2022-09-12T09:51:43;3.55;;;1.23;;
18879;SDS011;9572;52.378;13.404;2022-09-12T10:01:13;1.13;;;0.70;;
18879;SDS011;9572;52.378;13.404;2022-09-12T10:49:18;1.10;;;0.52;;
18879;SDS011;9572;52.378;13.404;2022-09-12T10:51:48;0.77;;;0.70;;
18879;SDS011;9572;52.378;13.404;2022-09-12T10:54:16;0.80;;;0.63;;
18879;SDS011;9572;52.378;13.404;2022-09-12T10:56:58;2.28;;;0.90;;
18879;SDS011;9572;52.378;13.404;2022-09-12T10:59:50;2.47;;;0.93;;
18879;SDS011;9572;52.378;13.404;2022-09-12T11:02:28;5.47;;;0.88;;
18879;SDS011;9572;52.378;13.404;2022-09-12T11:05:04;1.10;;;0.60;;
18879;SDS011;9572;52.378;13.404;2022-09-12T11:07:38;3.42;;;0.85;;
18879;SDS011;9572;52.378;13.404;2022-09-12T11:10:12;2.58;;;0.70;;
18879;SDS011;9572;52.378;13.404;2022-09-12T11:12:52;0.82;;;0.70;;
18879;SDS011;9572;52.378;13.404;2022-09-12T11:15:34;0.93;;;0.70;;
18879;SDS011;9572;52.378;13.404;2022-09-12T11:18:19;1.35;;;0.75;;
18879;SDS011;9572;52.378;13.404;2022-09-12T11:21:04;2.20;;;1.00;;
18879;SDS011;9572;52.378;13.404;2022-09-12T11:24:08;6.78;;;1.23;;
18879;SDS011;9572;52.378;13.404;2022-09-12T11:26:50;2.05;;;0.50;;
18879;SDS011;9572;52.378;13.404;2022-09-12T11:29:30;1.38;;;0.70;;
18879;SDS011;9572;52.378;13.404;2022-09-12T11:32:22;1.02;;;0.73;;
18879;SDS011;9572;52.378;13.404;2022-09-12T11:35:03;3.95;;;0.70;;
18879;SDS011;9572;52.378;13.404;2022-09-12T11:37:42;1.15;;;0.73;;
18879;SDS011;9572;52.378;13.404;2022-09-12T11:40:25;1.85;;;0.55;;
18879;SDS011;9572;52.378;13.404;2022-09-12T11:42:57;0.60;;;0.60;;
18879;SDS011;9572;52.378;13.404;2022-09-12T11:45:29;1.02;;;0.70;;
18879;SDS011;9572;52.378;13.404;2022-09-12T11:48:04;1.23;;;0.70;;
18879;SDS011;9572;52.378;13.404;2022-09-12T11:50:36;0.55;;;0.55;;
18879;SDS011;9572;52.378;13.404;2022-09-12T11:53:10;0.60;;;0.60;;
18879;SDS011;9572;52.378;13.404;2022-09-12T11:55:51;0.57;;;0.55;;
18879;SDS011;9572;52.378;13.404;2022-09-12T11:58:34;0.70;;;0.60;;
18879;SDS011;9572;52.378;13.404;2022-09-12T12:10:24;1.30;;;0.68;;
18879;SDS011;9572;52.378;13.404;2022-09-12T12:12:57;0.68;;;0.57;;
18879;SDS011;9572;52.378;13.404;2022-09-12T12:15:27;1.00;;;0.70;;
18879;SDS011;9572;52.378;13.404;2022-09-12T12:18:03;0.98;;;0.60;;
18879;SDS011;9572;52.378;13.404;2022-09-12T12:20:33;1.17;;;0.60;;
18879;SDS011;9572;52.378;13.404;2022-09-12T12:23:01;0.80;;;0.57;;
18879;SDS011;9572;52.378;13.404;2022-09-12T12:25:49;0.50;;;0.50;;
18879;SDS011;9572;52.378;13.404;2022-09-12T12:31:24;0.60;;;0.60;;
18879;SDS011;9572;52.378;13.404;2022-09-12T12:45:45;1.55;;;0.63;;
18879;SDS011;9572;52.378;13.404;2022-09-12T12:48:15;0.85;;;0.70;;
18879;SDS011;9572;52.378;13.404;2022-09-12T12:50:44;0.98;;;0.70;;
18879;SDS011;9572;52.378;13.404;2022-09-12T12:53:16;1.20;;;0.68;;
18879;SDS011;9572;52.378;13.404;2022-09-12T12:55:47;1.15;;;0.73;;
18879;SDS011;9572;52.378;13.404;2022-09-12T13:01:04;1.30;;;0.60;;
18879;SDS011;9572;52.378;13.404;2022-09-12T13:03:37;2.30;;;0.80;;
18879;SDS011;9572;52.378;13.404;2022-09-12T13:06:19;2.42;;;0.88;;
18879;SDS011;9572;52.378;13.404;2022-09-12T13:08:54;1.20;;;0.70;;
18879;SDS011;9572;52.378;13.404;2022-09-12T13:11:29;1.83;;;0.88;;
18879;SDS011;9572;52.378;13.404;2022-09-12T13:13:59;1.15;;;0.90;;
18879;SDS011;9572;52.378;13.404;2022-09-12T13:16:31;0.82;;;0.60;;
18879;SDS011;9572;52.378;13.404;2022-09-12T13:19:04;0.70;;;0.70;;
18879;SDS011;9572;52.378;13.404;2022-09-12T13:21:36;0.75;;;0.52;;
18879;SDS011;9572;52.378;13.404;2022-09-12T13:24:04;2.55;;;0.80;;
18879;SDS011;9572;52.378;13.404;2022-09-12T13:26:39;2.50;;;0.80;;
18879;SDS011;9572;52.378;13.404;2022-09-12T13:29:11;3.28;;;0.70;;
18879;SDS011;9572;52.378;13.404;2022-09-12T13:31:43;2.38;;;0.70;;
18879;SDS011;9572;52.378;13.404;2022-09-12T13:34:12;1.25;;;0.95;;
18879;SDS011;9572;52.378;13.404;2022-09-12T13:36:49;1.17;;;0.80;;
18879;SDS011;9572;52.378;13.404;2022-09-12T13:39:33;0.70;;;0.70;;
18879;SDS011;9572;52.378;13.404;2022-09-12T13:45:03;1.13;;;0.98;;
18879;SDS011;9572;52.378;13.404;2022-09-12T13:47:39;2.03;;;0.80;;
18879;SDS011;9572;52.378;13.404;2022-09-12T13:50:11;1.08;;;0.68;;
18879;SDS011;9572;52.378;13.404;2022-09-12T13:52:41;1.38;;;1.00;;
18879;SDS011;9572;52.378;13.404;2022-09-12T13:55:25;1.35;;;0.60;;
18879;SDS011;9572;52.378;13.404;2022-09-12T13:57:56;1.27;;;0.80;;
18879;SDS011;9572;52.378;13.404;2022-09-12T14:00:25;0.88;;;0.57;;
18879;SDS011;9572;52.378;13.404;2022-09-12T14:02:54;1.30;;;0.80;;
18879;SDS011;9572;52.378;13.404;2022-09-12T14:05:34;1.48;;;0.70;;
18879;SDS011;9572;52.378;13.404;2022-09-12T14:08:08;4.05;;;1.10;;
18879;SDS011;9572;52.378;13.404;2022-09-12T14:10:38;0.95;;;0.70;;
18879;SDS011;9572;52.378;13.404;2022-09-12T14:13:09;0.95;;;0.90;;
18879;SDS011;9572;52.378;13.404;2022-09-12T14:15:38;0.98;;;0.70;;
18879;SDS011;9572;52.378;13.404;2022-09-12T14:18:19;0.82;;;0.70;;
18879;SDS011;9572;52.378;13.404;2022-09-12T14:20:49;0.57;;;0.57;;
18879;SDS011;9572;52.378;13.404;2022-09-12T14:23:18;1.73;;;0.88;;
18879;SDS011;9572;52.378;13.404;2022-09-12T14:25:49;1.00;;;0.70;;
18879;SDS011;9572;52.378;13.404;2022-09-12T14:28:16;1.25;;;0.80;;
18879;SDS011;9572;52.378;13.404;2022-09-12T14:30:56;2.83;;;1.00;;
18879;SDS011;9572;52.378;13.404;2022-09-12T14:33:27;0.60;;;0.60;;
18879;SDS011;9572;52.378;13.404;2022-09-12T14:36:06;0.60;;;0.50;;
18879;SDS011;9572;52.378;13.404;2022-09-12T14:38:36;1.13;;;1.02;;
18879;SDS011;9572;52.378;13.404;2022-09-12T14:41:08;1.77;;;0.80;;
18879;SDS011;9572;52.378;13.404;2022-09-12T14:43:38;0.75;;;0.73;;
18879;SDS011;9572;52.378;13.404;2022-09-12T14:46:13;2.35;;;0.90;;
18879;SDS011;9572;52.378;13.404;2022-09-12T14:48:47;2.20;;;0.70;;
18879;SDS011;9572;52.378;13.404;2022-09-12T14:51:19;0.98;;;0.70;;
18879;SDS011;9572;52.378;13.404;2022-09-12T14:53:50;1.42;;;0.77;;
18879;SDS011;9572;52.378;13.404;2022-09-12T14:56:18;0.93;;;0.77;;
18879;SDS011;9572;52.378;13.404;2022-09-12T14:58:46;1.60;;;0.80;;
18879;SDS011;9572;52.378;13.404;2022-09-12T15:01:21;4.65;;;0.68;;
18879;SDS011;9572;52.378;13.404;2022-09-12T15:03:52;1.55;;;0.77;;
18879;SDS011;9572;52.378;13.404;2022-09-12T15:06:21;1.45;;;1.05;;
18879;SDS011;9572;52.378;13.404;2022-09-12T15:08:52;1.33;;;0.70;;
18879;SDS011;9572;52.378;13.404;2022-09-12T15:11:20;1.13;;;0.93;;
18879;SDS011;9572;52.378;13.404;2022-09-12T15:13:47;0.80;;;0.80;;
18879;SDS011;9572;52.378;13.404;2022-09-12T15:16:14;2.45;;;0.90;;
18879;SDS011;9572;52.378;13.404;2022-09-12T15:18:41;0.60;;;0.60;;
18879;SDS011;9572;52.378;13.404;2022-09-12T15:21:11;1.55;;;0.90;;
18879;SDS011;9572;52.378;13.404;2022-09-12T15:23:43;0.93;;;0.80;;
18879;SDS011;9572;52.378;13.404;2022-09-12T15:26:13;0.82;;;0.77;;
18879;SDS011;9572;52.378;13.404;2022-09-12T15:28:41;1.92;;;1.20;;
18879;SDS011;9572;52.378;13.404;2022-09-12T15:31:11;0.85;;;0.70;;
18879;SDS011;9572;52.378;13.404;2022-09-12T15:33:44;2.55;;;0.90;;
18879;SDS011;9572;52.378;13.404;2022-09-12T15:36:13;2.28;;;1.00;;
18879;SDS011;9572;52.378;13.404;2022-09-12T15:38:41;1.50;;;0.80;;
18879;SDS011;9572;52.378;13.404;2022-09-12T15:41:10;0.82;;;0.80;;
18879;SDS011;9572;52.378;13.404;2022-09-12T15:43:38;1.27;;;0.90;;
18879;SDS011;9572;52.378;13.404;2022-09-12T15:46:05;0.75;;;0.73;;
18879;SDS011;9572;52.378;13.404;2022-09-12T15:48:35;1.30;;;0.68;;
18879;SDS011;9572;52.378;13.404;2022-09-12T15:51:03;3.25;;;0.90;;
18879;SDS011;9572;52.378;13.404;2022-09-12T15:53:31;0.70;;;0.60;;
18879;SDS011;9572;52.378;13.404;2022-09-12T15:55:58;1.15;;;0.77;;
18879;SDS011;9572;52.378;13.404;2022-09-12T15:58:25;1.00;;;0.85;;
18879;SDS011;9572;52.378;13.404;2022-09-12T16:00:52;3.88;;;1.25;;
18879;SDS011;9572;52.378;13.404;2022-09-12T16:03:20;2.78;;;1.00;;
18879;SDS011;9572;52.378;13.404;2022-09-12T16:05:48;2.45;;;1.00;;
18879;SDS011;9572;52.378;13.404;2022-09-12T16:08:16;2.72;;;0.88;;
18879;SDS011;9572;52.378;13.404;2022-09-12T16:10:44;3.33;;;0.95;;
18879;SDS011;9572;52.378;13.404;2022-09-12T16:13:14;0.85;;;0.80;;
18879;SDS011;9572;52.378;13.404;2022-09-12T16:15:41;1.75;;;0.70;;
18879;SDS011;9572;52.378;13.404;2022-09-12T16:18:08;3.53;;;0.90;;
18879;SDS011;9572;52.378;13.404;2022-09-12T16:20:37;2.35;;;0.90;;
18879;SDS011;9572;52.378;13.404;2022-09-12T16:23:04;1.48;;;0.82;;
18879;SDS011;9572;52.378;13.404;2022-09-12T16:25:31;1.30;;;1.08;;
18879;SDS011;9572;52.378;13.404;2022-09-12T16:28:00;1.70;;;1.00;;
18879;SDS011;9572;52.378;13.404;2022-09-12T16:30:29;1.20;;;1.10;;
18879;SDS011;9572;52.378;13.404;2022-09-12T16:32:56;1.35;;;1.10;;
18879;SDS011;9572;52.378;13.404;2022-09-12T16:35:23;1.33;;;1.13;;
18879;SDS011;9572;52.378;13.404;2022-09-12T16:37:50;3.22;;;1.17;;
18879;SDS011;9572;52.378;13.404;2022-09-12T16:40:17;1.38;;;0.90;;
18879;SDS011;9572;52.378;13.404;2022-09-12T16:42:44;4.43;;;1.20;;
18879;SDS011;9572;52.378;13.404;2022-09-12T16:45:12;2.58;;;1.40;;
18879;SDS011;9572;52.378;13.404;2022-09-12T16:47:39;2.65;;;1.20;;
18879;SDS011;9572;52.378;13.404;2022-09-12T16:50:07;4.43;;;1.20;;
18879;SDS011;9572;52.378;13.404;2022-09-12T16:52:34;2.17;;;1.30;;
18879;SDS011;9572;52.378;13.404;2022-09-12T16:55:01;2.10;;;1.20;;
18879;SDS011;9572;52.378;13.404;2022-09-12T16:57:28;3.92;;;1.45;;
18879;SDS011;9572;52.378;13.404;2022-09-12T16:59:55;9.02;;;1.23;;
18879;SDS011;9572;52.378;13.404;2022-09-12T17:02:24;3.95;;;1.00;;
18879;SDS011;9572;52.378;13.404;2022-09-12T17:04:51;6.75;;;1.35;;
18879;SDS011;9572;52.378;13.404;2022-09-12T17:07:18;7.15;;;1.40;;
18879;SDS011;9572;52.378;13.404;2022-09-12T17:09:45;6.05;;;1.50;;
18879;SDS011;9572;52.378;13.404;2022-09-12T17:12:12;5.57;;;1.25;;
18879;SDS011;9572;52.378;13.404;2022-09-12T17:14:39;5.07;;;1.33;;
18879;SDS011;9572;52.378;13.404;2022-09-12T17:17:06;4.00;;;1.50;;
18879;SDS011;9572;52.378;13.404;2022-09-12T17:19:34;3.05;;;1.20;;
18879;SDS011;9572;52.378;13.404;2022-09-12T17:22:02;4.85;;;1.50;;
18879;SDS011;9572;52.378;13.404;2022-09-12T17:24:29;2.75;;;1.77;;
18879;SDS011;9572;52.378;13.404;2022-09-12T17:26:57;2.58;;;1.50;;